createdAt,value
2023-04-29T00:00:51.812Z,18.17
2023-04-29T00:03:20.219Z,17.87
2023-04-29T00:05:48.324Z,18.15
2023-04-29T00:08:17.615Z,17.68
2023-04-29T00:10:45.612Z,17.47
2023-04-29T00:13:13.705Z,17.37
2023-04-29T00:15:42.789Z,17.85
2023-04-29T00:18:11.059Z,17.92
2023-04-29T00:20:40.068Z,18.11
2023-04-29T00:23:07.988Z,18.20
2023-04-29T00:25:38.930Z,18.24
2023-04-29T00:28:07.051Z,18.13
2023-04-29T00:30:35.584Z,18.15
2023-04-29T00:33:03.669Z,18.23
2023-04-29T00:35:31.727Z,17.88
2023-04-29T00:37:59.835Z,18.14
2023-04-29T00:40:29.203Z,18.03
2023-04-29T00:42:58.616Z,17.60
2023-04-29T00:45:27.645Z,17.94
2023-04-29T00:47:56.125Z,17.52
2023-04-29T00:50:24.840Z,17.36
2023-04-29T00:52:53.669Z,17.93
2023-04-29T00:55:22.026Z,17.52
2023-04-29T00:57:52.478Z,17.35
2023-04-29T01:00:21.859Z,17.89
2023-04-29T01:02:51.048Z,17.46
2023-04-29T01:05:19.449Z,17.79
2023-04-29T01:07:57.895Z,17.93
2023-04-29T01:10:29.852Z,17.82
2023-04-29T01:13:08.022Z,17.93
2023-04-29T01:15:45.312Z,17.42
2023-04-29T01:18:20.522Z,17.87
2023-04-29T01:20:49.294Z,17.44
2023-04-29T01:23:17.180Z,17.81
2023-04-29T01:25:46.476Z,17.80
2023-04-29T01:28:42.046Z,17.25
2023-04-29T01:31:16.915Z,17.16
2023-04-29T01:33:52.379Z,17.45
2023-04-29T01:36:29.055Z,17.80
2023-04-29T01:39:04.664Z,17.31
2023-04-29T01:41:42.981Z,17.13
2023-04-29T01:44:23.576Z,17.30
2023-04-29T01:46:54.199Z,17.00
2023-04-29T01:49:26.162Z,16.77
2023-04-29T01:51:54.139Z,16.44
2023-04-29T01:54:22.525Z,16.17
2023-04-29T01:56:52.116Z,16.11
2023-04-29T01:59:36.848Z,16.34
2023-04-29T02:02:23.736Z,16.07
2023-04-29T02:04:59.548Z,16.57
2023-04-29T02:07:27.705Z,16.72
2023-04-29T02:09:57.193Z,16.44
2023-04-29T02:12:26.572Z,16.71
2023-04-29T02:14:54.832Z,17.16
2023-04-29T02:17:22.937Z,16.67
2023-04-29T02:19:51.138Z,16.60
2023-04-29T02:22:19.211Z,16.59
2023-04-29T02:24:47.284Z,16.63
2023-04-29T02:27:15.213Z,16.94
2023-04-29T02:29:44.501Z,16.52
2023-04-29T02:32:15.431Z,16.33
2023-04-29T02:34:43.403Z,16.37
2023-04-29T02:37:11.326Z,16.42
2023-04-29T02:39:41.368Z,16.53
2023-04-29T02:42:09.346Z,17.08
2023-04-29T02:44:37.734Z,17.37
2023-04-29T02:47:07.253Z,16.98
2023-04-29T02:49:35.867Z,16.83
2023-04-29T02:52:04.712Z,17.16
2023-04-29T02:54:32.846Z,17.19
2023-04-29T02:57:00.887Z,16.48
2023-04-29T02:59:28.915Z,16.07
2023-04-29T03:01:57.038Z,15.94
2023-04-29T03:04:26.669Z,15.89
2023-04-29T03:06:56.223Z,16.07
2023-04-29T03:09:26.924Z,16.15
2023-04-29T03:11:54.869Z,16.71
2023-04-29T03:14:22.759Z,16.43
2023-04-29T03:16:51.394Z,16.34
2023-04-29T03:19:20.097Z,16.33
2023-04-29T03:21:53.791Z,16.37
2023-04-29T03:24:22.626Z,17.01
2023-04-29T03:26:50.570Z,16.73
2023-04-29T03:29:21.681Z,16.65
2023-04-29T03:31:49.903Z,16.62
2023-04-29T03:34:18.077Z,16.59
2023-04-29T03:36:54.197Z,16.58
2023-04-29T03:39:23.706Z,16.58
2023-04-29T03:41:51.842Z,16.58
2023-04-29T03:44:19.910Z,16.59
2023-04-29T03:46:47.824Z,16.57
2023-04-29T03:49:16.073Z,16.57
2023-04-29T03:51:45.394Z,16.59
2023-04-29T03:54:17.899Z,16.59
2023-04-29T03:56:46.074Z,16.60
2023-04-29T03:59:14.269Z,16.61
2023-04-29T04:01:43.088Z,16.60
2023-04-29T04:04:11.263Z,16.60
2023-04-29T04:06:51.174Z,16.60
2023-04-29T04:09:22.799Z,16.58
2023-04-29T04:11:50.933Z,16.54
2023-04-29T04:14:19.594Z,16.54
2023-04-29T04:16:47.807Z,16.52
2023-04-29T04:19:15.881Z,16.49
2023-04-29T04:21:46.317Z,16.49
2023-04-29T04:24:14.296Z,16.51
2023-04-29T04:26:43.606Z,16.50
2023-04-29T04:29:29.161Z,16.48
2023-04-29T04:32:00.612Z,16.48
2023-04-29T04:34:28.733Z,16.45
2023-04-29T04:36:58.959Z,16.45
2023-04-29T04:39:26.952Z,16.48
2023-04-29T04:41:59.132Z,16.48
2023-04-29T04:44:29.335Z,16.49
2023-04-29T04:47:02.281Z,16.48
2023-04-29T04:49:52.963Z,16.46
2023-04-29T04:52:22.693Z,16.43
2023-04-29T04:55:01.284Z,16.42
2023-04-29T04:57:35.575Z,16.53
2023-04-29T05:00:05.700Z,16.29
2023-04-29T05:02:34.866Z,16.64
2023-04-29T05:05:03.078Z,16.56
2023-04-29T05:07:35.947Z,16.52
2023-04-29T05:10:08.577Z,16.51
2023-04-29T05:12:44.599Z,16.50
2023-04-29T05:15:15.005Z,16.48
2023-04-29T05:17:44.091Z,16.50
2023-04-29T05:20:13.058Z,16.48
2023-04-29T05:22:41.012Z,16.45
2023-04-29T05:25:09.593Z,16.43
2023-04-29T05:27:38.328Z,16.45
2023-04-29T05:30:12.243Z,16.38
2023-04-29T05:32:40.725Z,16.40
2023-04-29T05:35:11.363Z,16.41
2023-04-29T05:37:39.442Z,16.42
2023-04-29T05:40:19.865Z,16.42
2023-04-29T05:42:49.259Z,16.38
2023-04-29T05:45:19.041Z,16.40
2023-04-29T05:47:47.223Z,16.39
2023-04-29T05:50:15.671Z,16.36
2023-04-29T05:52:43.700Z,16.36
2023-04-29T05:55:11.696Z,16.39
2023-04-29T05:57:40.199Z,16.32
2023-04-29T06:00:09.854Z,16.23
2023-04-29T06:02:57.544Z,16.19
2023-04-29T06:05:27.791Z,16.25
2023-04-29T06:08:19.550Z,16.38
2023-04-29T06:10:52.245Z,16.48
2023-04-29T06:13:20.628Z,16.55
2023-04-29T06:15:50.716Z,16.60
2023-04-29T06:18:21.431Z,16.64
2023-04-29T06:20:49.387Z,16.65
2023-04-29T06:23:17.559Z,16.67
2023-04-29T06:25:46.271Z,16.66
2023-04-29T06:28:14.244Z,16.63
2023-04-29T06:30:42.187Z,16.62
2023-04-29T06:33:10.922Z,16.60
2023-04-29T06:35:42.090Z,16.61
2023-04-29T06:38:23.389Z,16.60
2023-04-29T06:41:18.302Z,16.63
2023-04-29T06:44:01.449Z,16.63
2023-04-29T06:46:48.099Z,16.61
2023-04-29T06:49:27.265Z,16.63
2023-04-29T06:51:56.676Z,16.64
2023-04-29T06:54:28.584Z,16.64
2023-04-29T06:56:56.511Z,16.65
2023-04-29T06:59:24.404Z,16.50
2023-04-29T07:01:52.906Z,16.53
2023-04-29T07:04:21.096Z,16.52
2023-04-29T07:06:49.242Z,16.58
2023-04-29T07:09:18.619Z,16.64
2023-04-29T07:11:46.843Z,16.70
2023-04-29T07:14:14.771Z,16.73
2023-04-29T07:16:42.980Z,16.77
2023-04-29T07:19:11.711Z,16.80
2023-04-29T07:21:39.761Z,16.82
2023-04-29T07:24:08.129Z,16.86
2023-04-29T07:26:37.454Z,16.91
2023-04-29T07:29:05.447Z,16.94
2023-04-29T07:31:34.365Z,17.00
2023-04-29T07:34:04.863Z,17.02
2023-04-29T07:36:33.164Z,17.00
2023-04-29T07:39:01.268Z,17.00
2023-04-29T07:41:29.376Z,17.03
2023-04-29T07:43:59.004Z,17.05
2023-04-29T07:46:26.995Z,17.06
2023-04-29T07:48:54.990Z,17.11
2023-04-29T07:51:23.047Z,17.15
2023-04-29T07:53:50.999Z,17.18
2023-04-29T07:56:20.006Z,17.19
2023-04-29T07:58:47.997Z,17.25
2023-04-29T08:01:18.717Z,17.29
2023-04-29T08:03:47.161Z,17.33
2023-04-29T08:06:18.386Z,17.35
2023-04-29T08:08:46.635Z,17.40
2023-04-29T08:11:18.310Z,17.43
2023-04-29T08:13:46.513Z,17.49
2023-04-29T08:16:14.712Z,17.57
2023-04-29T08:18:44.171Z,17.64
2023-04-29T08:21:12.479Z,17.67
2023-04-29T08:23:41.010Z,17.67
2023-04-29T08:26:10.798Z,17.71
2023-04-29T08:28:38.734Z,17.66
2023-04-29T08:31:07.696Z,17.52
2023-04-29T08:33:35.977Z,17.35
2023-04-29T08:36:06.033Z,17.33
2023-04-29T08:38:33.969Z,17.28
2023-04-29T08:41:02.513Z,17.16
2023-04-29T08:43:30.998Z,17.20
2023-04-29T08:46:00.453Z,17.37
2023-04-29T08:48:29.975Z,17.52
2023-04-29T08:50:58.514Z,17.59
2023-04-29T08:53:27.908Z,17.65
2023-04-29T08:55:56.509Z,17.67
2023-04-29T08:58:26.609Z,17.77
2023-04-29T09:00:54.862Z,17.77
2023-04-29T09:03:28.511Z,17.83
2023-04-29T09:05:57.474Z,17.94
2023-04-29T09:08:27.757Z,17.99
2023-04-29T09:10:56.757Z,18.04
2023-04-29T09:13:26.389Z,18.15
2023-04-29T09:15:54.678Z,18.25
2023-04-29T09:18:45.368Z,18.39
2023-04-29T09:21:21.097Z,18.44
2023-04-29T09:23:53.057Z,18.23
2023-04-29T09:26:22.569Z,18.26
2023-04-29T09:29:07.651Z,18.24
2023-04-29T09:31:35.967Z,18.07
2023-04-29T09:34:04.279Z,18.07
2023-04-29T09:36:39.998Z,18.14
2023-04-29T09:39:12.666Z,18.12
2023-04-29T09:41:42.321Z,17.90
2023-04-29T09:44:11.817Z,17.87
2023-04-29T09:46:39.873Z,17.96
2023-04-29T09:49:26.137Z,17.86
2023-04-29T09:51:55.995Z,17.96
2023-04-29T09:54:28.419Z,18.20
2023-04-29T09:56:57.821Z,18.44
2023-04-29T09:59:26.539Z,18.58
2023-04-29T10:01:55.850Z,18.65
2023-04-29T10:04:26.329Z,18.60
2023-04-29T10:06:56.229Z,18.57
2023-04-29T10:09:25.606Z,18.29
2023-04-29T10:11:54.868Z,18.20
2023-04-29T10:14:25.762Z,18.10
2023-04-29T10:17:01.024Z,18.01
2023-04-29T10:19:36.272Z,17.98
2023-04-29T10:22:10.123Z,17.87
2023-04-29T10:24:40.944Z,17.88
2023-04-29T10:27:09.757Z,17.65
2023-04-29T10:29:39.224Z,17.77
2023-04-29T10:32:10.965Z,17.79
2023-04-29T10:34:40.560Z,17.65
2023-04-29T10:37:11.393Z,17.73
2023-04-29T10:39:49.479Z,17.82
2023-04-29T10:42:27.391Z,17.87
2023-04-29T10:45:21.090Z,17.91
2023-04-29T10:48:14.570Z,17.97
2023-04-29T10:51:02.507Z,18.01
2023-04-29T10:53:31.170Z,18.03
2023-04-29T10:56:06.923Z,18.02
2023-04-29T10:58:39.393Z,18.08
2023-04-29T11:01:08.529Z,18.10
2023-04-29T11:04:01.535Z,18.03
2023-04-29T11:06:42.164Z,18.11
2023-04-29T11:09:13.782Z,18.17
2023-04-29T11:11:49.049Z,18.24
2023-04-29T11:14:24.901Z,18.32
2023-04-29T11:16:54.693Z,18.71
2023-04-29T11:19:25.660Z,18.29
2023-04-29T11:22:30.440Z,18.14
2023-04-29T11:25:01.713Z,18.18
2023-04-29T11:27:34.139Z,18.19
2023-04-29T11:30:05.097Z,18.09
2023-04-29T11:32:34.836Z,18.29
2023-04-29T11:35:09.952Z,18.17
2023-04-29T11:37:39.359Z,18.18
2023-04-29T11:40:08.841Z,18.22
2023-04-29T11:42:43.328Z,18.25
2023-04-29T11:45:12.426Z,18.30
2023-04-29T11:47:44.910Z,18.39
2023-04-29T11:50:13.787Z,18.44
2023-04-29T11:52:41.816Z,18.40
2023-04-29T11:55:10.673Z,18.43
2023-04-29T11:57:40.612Z,18.33
2023-04-29T12:00:11.782Z,18.31
2023-04-29T12:02:40.331Z,18.43
2023-04-29T12:05:09.581Z,18.33
2023-04-29T12:07:38.426Z,18.10
2023-04-29T12:10:10.294Z,18.18
2023-04-29T12:12:40.950Z,18.17
2023-04-29T12:15:11.165Z,18.18
2023-04-29T12:17:40.048Z,18.10
2023-04-29T12:20:09.967Z,18.17
2023-04-29T12:22:37.954Z,18.21
2023-04-29T12:25:07.325Z,18.31
2023-04-29T12:27:36.452Z,18.42
2023-04-29T12:30:08.355Z,18.47
2023-04-29T12:32:36.941Z,18.56
2023-04-29T12:35:05.255Z,18.60
2023-04-29T12:37:34.630Z,18.57
2023-04-29T12:40:02.575Z,18.60
2023-04-29T12:42:33.795Z,18.62
2023-04-29T12:45:01.767Z,18.59
2023-04-29T12:47:35.077Z,18.59
2023-04-29T12:50:03.155Z,18.66
2023-04-29T12:52:31.082Z,18.67
2023-04-29T12:54:59.042Z,18.53
2023-04-29T12:57:29.387Z,18.52
2023-04-29T12:59:57.277Z,18.40
2023-04-29T13:02:25.241Z,18.22
2023-04-29T13:04:55.177Z,18.13
2023-04-29T13:07:23.687Z,18.15
2023-04-29T13:09:51.782Z,18.22
2023-04-29T13:12:19.698Z,18.28
2023-04-29T13:14:47.757Z,18.37
2023-04-29T13:17:15.992Z,18.43
2023-04-29T13:19:51.326Z,18.39
2023-04-29T13:22:21.778Z,18.43
2023-04-29T13:24:50.138Z,18.38
2023-04-29T13:27:18.219Z,18.38
2023-04-29T13:29:46.379Z,18.45
2023-04-29T13:32:14.513Z,18.46
2023-04-29T13:34:43.516Z,18.41
2023-04-29T13:37:11.992Z,18.40
2023-04-29T13:39:45.348Z,18.37
2023-04-29T13:42:15.839Z,18.33
2023-04-29T13:44:52.455Z,18.36
2023-04-29T13:47:25.954Z,18.35
2023-04-29T13:53:10.689Z,18.41
2023-04-29T13:56:07.365Z,18.40
2023-04-29T14:03:07.555Z,18.33
2023-04-29T14:05:35.834Z,18.29
2023-04-29T14:08:03.904Z,18.33
2023-04-29T14:10:33.211Z,18.31
2023-04-29T14:13:01.185Z,18.51
2023-04-29T14:15:29.164Z,18.53
2023-04-29T14:17:57.137Z,18.38
2023-04-29T14:20:25.112Z,18.38
2023-04-29T14:22:53.197Z,18.49
2023-04-29T14:25:21.136Z,18.62
2023-04-29T14:27:50.395Z,18.57
2023-04-29T14:30:18.454Z,18.56
2023-04-29T14:32:46.498Z,18.69
2023-04-29T14:35:15.166Z,18.98
2023-04-29T14:37:43.209Z,19.18
2023-04-29T14:40:11.631Z,19.34
2023-04-29T14:42:40.001Z,19.37
2023-04-29T14:45:10.556Z,19.15
2023-04-29T14:47:38.893Z,19.25
2023-04-29T14:50:08.296Z,19.25
2023-04-29T14:52:36.233Z,19.25
2023-04-29T14:55:04.688Z,19.22
2023-04-29T14:57:32.546Z,19.16
2023-04-29T15:00:01.181Z,19.14
2023-04-29T15:02:30.502Z,19.10
2023-04-29T15:04:58.742Z,19.05
2023-04-29T15:07:28.406Z,19.01
2023-04-29T15:09:57.280Z,18.96
2023-04-29T15:12:25.211Z,18.87
2023-04-29T15:14:53.644Z,18.85
2023-04-29T15:17:21.694Z,18.82
2023-04-29T15:19:50.978Z,18.68
2023-04-29T15:22:19.027Z,18.76
2023-04-29T15:27:19.822Z,18.92
2023-04-29T15:29:47.964Z,18.82
2023-04-29T15:32:16.154Z,18.89
2023-04-29T15:34:44.132Z,18.76
2023-04-29T15:37:13.526Z,18.70
2023-04-29T15:39:41.439Z,18.59
2023-04-29T15:42:09.553Z,18.55
2023-04-29T15:44:37.456Z,18.56
2023-04-29T15:47:05.370Z,18.48
2023-04-29T15:49:33.418Z,18.56
2023-04-29T15:52:01.386Z,18.56
2023-04-29T15:54:30.742Z,18.26
2023-04-29T15:56:58.654Z,18.29
2023-04-29T15:59:26.609Z,18.32
2023-04-29T16:01:54.495Z,18.28
2023-04-29T16:04:22.456Z,18.24
2023-04-29T16:06:51.139Z,18.16
2023-04-29T16:09:19.073Z,18.19
2023-04-29T16:11:48.452Z,18.17
2023-04-29T16:14:16.365Z,18.17
2023-04-29T16:16:44.333Z,18.16
2023-04-29T16:19:12.461Z,18.12
2023-04-29T16:21:40.441Z,18.09
2023-04-29T16:24:08.574Z,18.10
2023-04-29T16:26:37.404Z,18.19
2023-04-29T16:29:06.745Z,18.34
2023-04-29T16:31:34.713Z,18.39
2023-04-29T16:34:03.385Z,18.48
2023-04-29T16:36:32.526Z,18.56
2023-04-29T16:39:00.432Z,18.54
2023-04-29T16:41:28.401Z,18.48
2023-04-29T16:43:56.524Z,18.55
2023-04-29T16:46:26.111Z,18.65
2023-04-29T16:48:56.825Z,18.61
2023-04-29T16:51:26.262Z,18.68
2023-04-29T16:53:54.663Z,18.72
2023-04-29T16:56:22.779Z,18.65
2023-04-29T16:58:51.151Z,18.66
2023-04-29T17:01:19.779Z,18.63
2023-04-29T17:03:50.147Z,18.63
2023-04-29T17:06:18.486Z,18.64
2023-04-29T17:08:47.506Z,18.67
2023-04-29T17:11:18.280Z,18.69
2023-04-29T17:13:46.388Z,18.69
2023-04-29T17:16:14.993Z,18.56
2023-04-29T17:18:43.055Z,18.50
2023-04-29T17:21:12.336Z,18.46
2023-04-29T17:23:40.258Z,18.49
2023-04-29T17:26:08.249Z,18.53
2023-04-29T17:28:36.470Z,18.54
2023-04-29T17:31:06.123Z,18.56
2023-04-29T17:33:35.518Z,18.54
2023-04-29T17:36:04.124Z,18.53
2023-04-29T17:38:34.125Z,18.53
2023-04-29T17:41:02.861Z,18.51
2023-04-29T17:43:33.202Z,18.50
2023-04-29T17:46:01.185Z,18.49
2023-04-29T17:48:29.109Z,18.35
2023-04-29T17:50:57.027Z,18.38
2023-04-29T17:53:24.943Z,18.49
2023-04-29T17:55:54.206Z,18.47
2023-04-29T17:58:22.102Z,18.51
2023-04-29T18:00:50.069Z,18.57
2023-04-29T18:03:18.105Z,18.52
2023-04-29T18:05:47.427Z,18.51
2023-04-29T18:08:15.358Z,18.47
2023-04-29T18:10:43.276Z,18.44
2023-04-29T18:13:12.552Z,18.47
2023-04-29T18:15:40.447Z,18.40
2023-04-29T18:18:08.739Z,18.18
2023-04-29T18:20:36.665Z,18.10
2023-04-29T18:23:04.571Z,18.08
2023-04-29T18:25:32.511Z,17.98
2023-04-29T18:28:13.606Z,17.83
2023-04-29T18:30:50.131Z,17.79
2023-04-29T18:33:18.143Z,17.74
2023-04-29T18:35:46.134Z,17.65
2023-04-29T18:38:17.295Z,17.53
2023-04-29T18:40:45.565Z,17.46
2023-04-29T18:43:17.121Z,17.39
2023-04-29T18:45:45.672Z,17.32
2023-04-29T18:48:15.126Z,17.25
2023-04-29T18:50:43.617Z,17.19
2023-04-29T18:53:11.828Z,17.12
2023-04-29T18:55:39.818Z,17.02
2023-04-29T18:58:07.753Z,16.96
2023-04-29T19:00:35.734Z,16.90
2023-04-29T19:03:03.710Z,16.87
2023-04-29T19:05:33.552Z,16.81
2023-04-29T19:08:01.531Z,16.72
2023-04-29T19:10:29.461Z,16.70
2023-04-29T19:12:57.389Z,16.66
2023-04-29T19:15:27.971Z,16.62
2023-04-29T19:17:56.345Z,16.58
2023-04-29T19:20:24.360Z,16.52
2023-04-29T19:22:53.662Z,16.51
2023-04-29T19:25:22.059Z,16.44
2023-04-29T19:27:51.078Z,16.43
2023-04-29T19:30:19.222Z,16.39
2023-04-29T19:32:47.419Z,16.37
2023-04-29T19:35:15.666Z,16.36
2023-04-29T19:37:44.327Z,16.25
2023-04-29T19:40:13.884Z,16.28
2023-04-29T19:42:41.792Z,16.27
2023-04-29T19:45:12.632Z,16.30
2023-04-29T19:47:41.119Z,16.24
2023-04-29T19:50:09.678Z,16.19
2023-04-29T19:52:37.953Z,16.19
2023-04-29T19:55:08.632Z,16.11
2023-04-29T19:57:38.798Z,16.21
2023-04-29T20:00:09.462Z,16.26
2023-04-29T20:02:37.529Z,16.31
2023-04-29T20:05:06.311Z,16.32
2023-04-29T20:07:34.264Z,16.27
2023-04-29T20:10:02.176Z,16.22
2023-04-29T20:12:30.339Z,16.21
2023-04-29T20:14:59.875Z,16.16
2023-04-29T20:17:28.372Z,16.14
2023-04-29T20:19:56.539Z,16.10
2023-04-29T20:22:24.772Z,16.04
2023-04-29T20:24:52.687Z,15.99
2023-04-29T20:27:20.597Z,15.98
2023-04-29T20:29:48.557Z,15.94
2023-04-29T20:32:17.955Z,15.89
2023-04-29T20:34:46.206Z,15.87
2023-04-29T20:37:14.187Z,15.87
2023-04-29T20:39:42.078Z,15.85
2023-04-29T20:42:10.063Z,15.84
2023-04-29T20:44:38.466Z,15.85
2023-04-29T20:47:06.755Z,15.83
2023-04-29T20:49:36.046Z,15.81
2023-04-29T20:52:06.379Z,15.79
2023-04-29T20:54:35.041Z,15.73
2023-04-29T20:57:05.418Z,15.67
2023-04-29T20:59:33.844Z,15.65
2023-04-29T21:02:01.769Z,15.65
2023-04-29T21:04:29.729Z,15.64
2023-04-29T21:06:59.041Z,15.56
2023-04-29T21:09:27.030Z,15.50
2023-04-29T21:11:54.885Z,15.50
2023-04-29T21:14:22.783Z,15.50
2023-04-29T21:16:50.708Z,15.47
2023-04-29T21:19:18.678Z,15.39
2023-04-29T21:21:46.625Z,15.43
2023-04-29T21:24:16.008Z,15.45
2023-04-29T21:26:44.057Z,15.37
2023-04-29T21:29:12.029Z,15.35
2023-04-29T21:31:40.074Z,15.40
2023-04-29T21:34:08.063Z,15.40
2023-04-29T21:36:35.950Z,15.38
2023-04-29T21:39:03.950Z,15.37
2023-04-29T21:41:37.391Z,15.36
2023-04-29T21:44:07.114Z,15.33
2023-04-29T21:46:35.791Z,15.31
2023-04-29T21:49:04.525Z,15.28
2023-04-29T21:51:32.818Z,15.24
2023-04-29T21:54:01.073Z,15.28
2023-04-29T21:56:28.990Z,15.28
2023-04-29T21:58:58.259Z,15.28
2023-04-29T22:01:40.516Z,15.28
2023-04-29T22:04:08.527Z,15.30
2023-04-29T22:06:36.524Z,15.30
2023-04-29T22:09:06.611Z,15.30
2023-04-29T22:11:34.695Z,15.25
2023-04-29T22:14:04.050Z,15.23
2023-04-29T22:16:32.363Z,15.23
2023-04-29T22:19:00.271Z,15.17
2023-04-29T22:21:29.029Z,15.13
2023-04-29T22:23:57.017Z,15.13
2023-04-29T22:26:25.515Z,15.14
2023-04-29T22:28:53.514Z,15.16
2023-04-29T22:31:22.932Z,15.09
2023-04-29T22:33:50.963Z,15.05
2023-04-29T22:36:18.898Z,15.06
2023-04-29T22:38:46.886Z,15.07
2023-04-29T22:41:15.025Z,15.05
2023-04-29T22:43:42.949Z,15.06
2023-04-29T22:46:11.101Z,15.06
2023-04-29T22:48:40.469Z,15.05
2023-04-29T22:51:08.383Z,15.05
2023-04-29T22:53:36.307Z,15.04
2023-04-29T22:56:04.420Z,15.05
2023-04-29T22:58:33.722Z,15.02
2023-04-29T23:01:02.019Z,15.00
2023-04-29T23:03:29.970Z,14.94
2023-04-29T23:06:00.420Z,14.91
2023-04-29T23:08:28.549Z,14.87
2023-04-29T23:10:56.465Z,14.85
2023-04-29T23:13:24.699Z,14.85
2023-04-29T23:15:53.268Z,14.87
2023-04-29T23:18:21.221Z,14.88
2023-04-29T23:20:49.613Z,14.85
2023-04-29T23:23:18.931Z,14.84
2023-04-29T23:25:46.880Z,14.82
2023-04-29T23:28:14.870Z,14.78
2023-04-29T23:30:42.983Z,14.75
2023-04-29T23:33:10.972Z,14.77
2023-04-29T23:35:38.867Z,14.77
2023-04-29T23:38:06.785Z,14.78
2023-04-29T23:40:36.188Z,14.76
2023-04-29T23:43:04.098Z,14.72
2023-04-29T23:45:32.010Z,14.69
2023-04-29T23:47:59.973Z,14.70
2023-04-29T23:50:27.941Z,14.59
2023-04-29T23:52:55.907Z,14.49
2023-04-29T23:55:23.775Z,14.55
2023-04-29T23:57:53.029Z,14.60
